Rutledge, Iowa
Current Conditions -  °F | °C
As of 10:35 PM on Wednesday 22 Oct 2014 (Local Time) from KOOA Reporting Station
Clear Clear  
Wind Chill: 44°   Ceiling: Unl
Heat Index: 48°   Visibility: 10mi
Dew Point: 41°   Wind: 8mph
Humidity: 77%   Direction: 130°SE
Pressure: 30.17"   Gusts: NA
Location:  41.0803°N, 92.3054°W
Report Text: KOOA 230335Z AUTO 13007KT 10SM CLR 09/05 A3017 RMK AO2 T00870048
Loading
Personal Weather Stations






























Interactive Weather Map
Tropical Storm Tracking
New forecast layout! Learn more

10-Day Weather Forecast

Advertisements
Track Severe Weather on mobile